createdAt,value
2023-02-27T00:05:16.197Z,-0.80
2023-02-27T00:15:22.834Z,-0.80
2023-02-27T00:25:26.699Z,-0.90
2023-02-27T00:35:32.085Z,-0.90
2023-02-27T00:45:35.987Z,-0.90
2023-02-27T00:55:41.178Z,-0.90
2023-02-27T01:05:45.597Z,-0.90
2023-02-27T01:15:51.334Z,-0.90
2023-02-27T08:14:05.660Z,1.40
2023-02-27T08:24:09.389Z,2.40
2023-02-27T08:34:14.843Z,2.70
2023-02-27T08:44:18.485Z,3.30
2023-02-27T08:54:26.657Z,3.70
2023-02-27T09:04:30.696Z,3.40
2023-02-27T09:14:35.926Z,4.60
2023-02-27T09:24:39.664Z,4.90
2023-02-27T09:34:44.707Z,6.30
2023-02-27T09:44:50.994Z,6.40
2023-02-27T09:54:56.224Z,6.80
2023-02-27T10:05:12.852Z,7.30
2023-02-27T10:15:27.677Z,6.10
2023-02-27T10:25:35.656Z,4.30
2023-02-27T10:35:44.875Z,3.20
2023-02-27T10:45:49.951Z,3.10
2023-02-27T10:56:05.806Z,3.50
2023-02-27T11:06:21.094Z,3.80
2023-02-27T11:16:26.983Z,2.80
2023-02-27T11:26:34.740Z,2.00
2023-02-27T11:36:45.702Z,1.50
2023-02-27T11:46:49.983Z,1.70
2023-02-27T11:57:01.632Z,1.30
2023-02-27T12:07:16.798Z,2.80
2023-02-27T12:17:28.690Z,1.50
2023-02-27T12:27:44.667Z,1.50
2023-02-27T12:37:49.948Z,1.60
2023-02-27T12:48:05.760Z,3.50
2023-02-27T12:58:39.036Z,2.00
2023-02-27T13:09:06.805Z,2.40
2023-02-27T13:19:16.457Z,2.50
2023-02-27T13:29:23.515Z,2.00
2023-02-27T13:39:56.188Z,1.90
2023-02-27T13:50:01.746Z,1.80
2023-02-27T14:00:20.747Z,2.00
2023-02-27T14:10:28.879Z,2.00
2023-02-27T14:20:53.724Z,1.70
2023-02-27T14:31:01.506Z,1.60
2023-02-27T14:41:28.275Z,1.70
2023-02-27T14:51:33.903Z,1.80
2023-02-27T15:01:39.556Z,1.80
2023-02-27T15:11:51.268Z,1.60
2023-02-27T15:22:15.177Z,1.10
2023-02-27T15:32:28.116Z,0.80
2023-02-27T15:42:37.606Z,0.70
2023-02-27T15:52:45.833Z,0.60
2023-02-27T16:02:54.367Z,0.50
2023-02-27T16:13:21.166Z,0.40
2023-02-27T16:23:28.546Z,0.20
2023-02-27T16:33:39.057Z,0.00
2023-02-27T16:43:45.106Z,-0.20
2023-02-27T16:53:49.437Z,-0.30
2023-02-27T17:03:54.320Z,-0.40
2023-02-27T17:13:57.976Z,-0.40
2023-02-27T17:24:03.366Z,-0.50
2023-02-27T17:34:08.915Z,-0.60
2023-02-27T17:44:14.507Z,-0.60
2023-02-27T17:54:17.969Z,-0.60
2023-02-27T18:04:22.827Z,-0.60
2023-02-27T18:14:27.804Z,-0.60
2023-02-27T18:24:32.723Z,-0.60
2023-02-27T18:34:36.637Z,-0.60
2023-02-27T18:44:42.847Z,-0.70
2023-02-27T18:54:46.375Z,-0.70
2023-02-27T19:04:51.297Z,-0.70
2023-02-27T19:14:55.471Z,-0.70
2023-02-27T19:25:00.427Z,-0.70
2023-02-27T19:35:04.018Z,-0.60
2023-02-27T19:45:10.218Z,-0.60
2023-02-27T19:55:13.982Z,-0.70
2023-02-27T20:05:19.283Z,-0.70
2023-02-27T20:15:22.788Z,-0.70
2023-02-27T20:25:27.765Z,-0.70
2023-02-27T20:35:31.346Z,-0.80
2023-02-27T20:45:40.556Z,-0.80
2023-02-27T20:55:50.451Z,-0.90
2023-02-27T21:05:55.249Z,-0.90
2023-02-27T21:16:01.557Z,-0.90
2023-02-27T21:26:08.116Z,-0.90
2023-02-27T21:36:12.636Z,-1.00
2023-02-27T21:46:18.330Z,-0.90
2023-02-27T21:56:21.778Z,-1.00
2023-02-27T22:06:29.445Z,-1.00
2023-02-27T22:16:34.256Z,-1.00
2023-02-27T22:26:39.607Z,-1.00
2023-02-27T22:36:43.111Z,-1.00
2023-02-27T22:46:50.389Z,-1.00
2023-02-27T22:56:57.949Z,-1.10
2023-02-27T23:07:03.018Z,-1.10
2023-02-27T23:17:06.494Z,-1.10
2023-02-27T23:27:25.437Z,-1.10
2023-02-27T23:37:29.526Z,-1.20
2023-02-27T23:47:43.968Z,-1.30
2023-02-27T23:57:47.763Z,-1.20
